Time;durP1;ratioP1;P1;durP2;ratioP2;P2;SDS_P1;SDS_P2;PMS_P1;PMS_P2;Temp;Humidity;BMP_temperature;BMP_pressure;BME280_temperature;BME280_humidity;BME280_pressure;Samples;Min_cycle;Max_cycle;Signal;HPM_P1;HPM_P2
2022/03/06 00:01:17;;;;;;;;;7.80;6.60;;;;;-0.10;56.33;100560.38;5097364;28;9503;-63
2022/03/06 00:03:45;;;;;;;;;12.80;11.20;;;;;-0.06;55.80;100554.16;5097290;28;9492;-68
2022/03/06 00:06:14;;;;;;;;;5.20;4.00;;;;;-0.05;55.56;100554.09;5097160;28;8907;-63
2022/03/06 00:08:42;;;;;;;;;5.60;5.60;;;;;-0.06;55.85;100549.78;5096777;28;8842;-63
2022/03/06 00:11:10;;;;;;;;;8.20;5.60;;;;;-0.08;55.65;100549.88;5096486;28;8842;-63
2022/03/06 00:13:37;;;;;;;;;11.20;9.20;;;;;-0.11;55.76;100556.03;5097465;28;8829;-63
2022/03/06 00:16:06;;;;;;;;;1.80;1.80;;;;;-0.12;56.07;100555.16;5111410;28;8868;-63
2022/03/06 00:18:35;;;;;;;;;9.60;9.20;;;;;-0.13;55.78;100556.97;5116140;28;8852;-63
2022/03/06 00:21:03;;;;;;;;;11.40;9.80;;;;;-0.13;56.44;100556.06;5116704;28;8858;-63
2022/03/06 00:23:31;;;;;;;;;9.60;7.60;;;;;-0.13;55.85;100553.44;5115964;28;8844;-63
2022/03/06 00:25:58;;;;;;;;;7.00;7.00;;;;;-0.16;56.34;100552.66;5117674;28;8823;-65
2022/03/06 00:28:27;;;;;;;;;9.20;9.20;;;;;-0.19;56.19;100552.78;5117308;28;9470;-63
2022/03/06 00:30:54;;;;;;;;;9.40;9.40;;;;;-0.22;56.50;100558.09;5117030;28;8839;-63
2022/03/06 00:33:22;;;;;;;;;6.60;6.20;;;;;-0.23;56.75;100560.75;5117496;28;9516;-63
2022/03/06 00:35:50;;;;;;;;;4.40;3.20;;;;;-0.23;56.65;100555.50;5116921;28;8836;-63
2022/03/06 00:38:18;;;;;;;;;6.40;5.60;;;;;-0.24;56.00;100559.03;5116842;28;8817;-63
2022/03/06 00:40:45;;;;;;;;;7.00;6.80;;;;;-0.28;56.56;100562.59;5117021;28;8947;-63
2022/03/06 00:43:15;;;;;;;;;13.40;11.00;;;;;-0.36;56.35;100567.19;5116688;28;8957;-63
2022/03/06 00:45:43;;;;;;;;;6.60;6.20;;;;;-0.41;56.17;100571.66;5103572;28;8829;-63
2022/03/06 00:48:11;;;;;;;;;9.00;6.00;;;;;-0.48;57.09;100560.50;5096296;28;8826;-63
2022/03/06 00:50:38;;;;;;;;;7.00;7.00;;;;;-0.53;56.74;100566.75;5096489;28;9448;-63
2022/03/06 00:53:06;;;;;;;;;9.20;7.40;;;;;-0.57;56.83;100580.78;5095853;28;8876;-63
2022/03/06 00:55:34;;;;;;;;;8.20;6.60;;;;;-0.61;56.88;100580.00;5095413;28;9929;-63
2022/03/06 00:58:05;;;;;;;;;6.40;6.40;;;;;-0.62;57.47;100583.53;5096599;28;8826;-63
2022/03/06 01:00:35;;;;;;;;;10.80;7.80;;;;;-0.62;57.20;100577.44;5096155;28;8850;-63
2022/03/06 01:03:03;;;;;;;;;7.40;6.60;;;;;-0.60;57.33;100583.50;5096390;28;8830;-63
2022/03/06 01:05:31;;;;;;;;;12.00;9.00;;;;;-0.64;57.19;100589.69;5095577;28;8833;-63
2022/03/06 01:07:59;;;;;;;;;5.60;5.60;;;;;-0.67;57.27;100592.38;5095717;28;8836;-63
2022/03/06 01:10:27;;;;;;;;;9.20;8.20;;;;;-0.72;57.40;100584.66;5095778;28;8981;-64
2022/03/06 01:12:55;;;;;;;;;5.20;5.20;;;;;-0.75;57.25;100589.97;5095350;28;8860;-63
2022/03/06 01:15:23;;;;;;;;;6.60;5.60;;;;;-0.79;57.39;100590.03;5104293;28;9093;-64
2022/03/06 01:17:50;;;;;;;;;7.40;7.40;;;;;-0.81;57.77;100597.06;5114884;28;8824;-64
2022/03/06 01:20:19;;;;;;;;;10.00;9.00;;;;;-0.84;57.57;100598.00;5115707;28;8962;-64
2022/03/06 01:22:46;;;;;;;;;6.80;6.00;;;;;-0.85;57.38;100600.66;5115177;28;8936;-64
2022/03/06 01:25:14;;;;;;;;;7.60;6.80;;;;;-0.87;57.80;100602.44;5115151;28;8828;-63
2022/03/06 01:27:42;;;;;;;;;14.20;9.40;;;;;-0.88;57.63;100600.72;5115274;28;8824;-64
2022/03/06 01:30:10;;;;;;;;;5.00;4.60;;;;;-0.87;57.84;100607.66;5114610;28;8831;-63
2022/03/06 01:32:37;;;;;;;;;10.80;8.60;;;;;-0.84;57.70;100592.78;5115857;28;8846;-64
2022/03/06 01:35:05;;;;;;;;;12.00;11.80;;;;;-0.79;57.50;100603.09;5113600;28;8983;-63
2022/03/06 01:37:33;;;;;;;;;2.60;2.60;;;;;-0.75;57.23;100602.16;5115658;28;8828;-64
2022/03/06 01:40:01;;;;;;;;;9.00;8.60;;;;;-0.72;57.31;100604.69;5113712;28;8834;-68
2022/03/06 01:42:28;;;;;;;;;5.20;4.00;;;;;-0.69;57.12;100597.63;5113747;28;9513;-63
2022/03/06 01:44:56;;;;;;;;;4.40;4.40;;;;;-0.63;57.17;100599.28;5108981;28;9502;-64
2022/03/06 01:47:24;;;;;;;;;5.40;3.00;;;;;-0.60;57.50;100599.19;5094853;28;8822;-64
2022/03/06 01:49:52;;;;;;;;;6.00;4.00;;;;;-0.59;56.68;100600.91;5094813;28;8952;-63
2022/03/06 01:52:19;;;;;;;;;8.60;6.60;;;;;-0.58;57.22;100600.00;5094572;28;8875;-64
2022/03/06 01:54:47;;;;;;;;;7.40;7.00;;;;;-0.59;56.83;100607.00;5094628;28;8848;-64
2022/03/06 01:57:15;;;;;;;;;5.60;5.60;;;;;-0.60;56.62;100607.03;5095370;28;8850;-63
2022/03/06 01:59:43;;;;;;;;;7.20;7.20;;;;;-0.61;56.90;100610.53;5095475;28;8841;-63
2022/03/06 02:02:10;;;;;;;;;9.20;9.20;;;;;-0.62;57.12;100604.44;5095616;28;8875;-64
2022/03/06 02:04:38;;;;;;;;;12.60;10.00;;;;;-0.61;57.01;100605.31;5095173;28;8853;-64
2022/03/06 02:07:06;;;;;;;;;4.00;4.00;;;;;-0.59;57.11;100613.97;5094767;28;8826;-64
2022/03/06 02:09:35;;;;;;;;;7.80;7.00;;;;;-0.58;57.00;100613.94;5094887;28;8836;-63
2022/03/06 02:14:48;;;;;;;;;7.00;6.40;;;;;-0.53;56.52;100616.44;5099904;28;8826;-64
2022/03/06 02:17:16;;;;;;;;;9.60;9.20;;;;;-0.51;56.65;100607.66;5115087;28;8824;-64
2022/03/06 02:19:44;;;;;;;;;6.60;5.40;;;;;-0.47;56.53;100605.84;5116117;28;8840;-64
2022/03/06 02:22:12;;;;;;;;;8.60;7.80;;;;;-0.42;56.65;100611.78;5113589;28;8855;-64
2022/03/06 02:24:39;;;;;;;;;9.00;6.80;;;;;-0.39;56.77;100598.66;5114012;28;8913;-65
2022/03/06 02:27:07;;;;;;;;;9.80;9.80;;;;;-0.34;56.92;100604.59;5114152;28;8915;-64
2022/03/06 02:29:35;;;;;;;;;9.40;8.20;;;;;-0.30;56.43;100604.53;5114746;28;8846;-64
2022/03/06 02:32:03;;;;;;;;;8.60;8.20;;;;;-0.25;56.28;100596.56;5114978;28;8936;-64
2022/03/06 02:34:31;;;;;;;;;11.40;6.20;;;;;-0.21;56.54;100601.66;5115083;28;8843;-63
2022/03/06 02:36:58;;;;;;;;;7.00;6.00;;;;;-0.15;56.39;100600.66;5115159;28;8840;-64
2022/03/06 02:39:26;;;;;;;;;1.00;1.00;;;;;-0.11;55.79;100597.91;5114896;28;8848;-65
2022/03/06 02:41:54;;;;;;;;;8.20;8.20;;;;;-0.07;56.41;100592.53;5117595;28;8824;-64
2022/03/06 02:44:22;;;;;;;;;9.20;9.20;;;;;-0.03;56.53;100588.97;5118528;28;8863;-63
2022/03/06 02:46:49;;;;;;;;;6.60;6.60;;;;;-0.02;56.17;100584.56;5099031;28;8830;-63
2022/03/06 02:49:18;;;;;;;;;11.00;11.00;;;;;0.00;55.87;100588.03;5099139;28;8841;-63
2022/03/06 02:51:46;;;;;;;;;12.40;11.40;;;;;-0.01;56.39;100589.78;5098152;28;8860;-64
2022/03/06 02:54:14;;;;;;;;;10.80;9.40;;;;;0.04;55.92;100590.53;5098197;28;8800;-63
2022/03/06 02:56:41;;;;;;;;;10.40;9.60;;;;;0.09;55.75;100586.00;5096301;28;9859;-64
2022/03/06 02:59:09;;;;;;;;;7.80;7.80;;;;;0.08;56.35;100597.38;5101915;28;8839;-64
2022/03/06 03:01:40;;;;;;;;;6.40;4.80;;;;;0.07;56.21;100593.03;5119239;28;8843;-63
2022/03/06 03:04:08;;;;;;;;;9.00;9.00;;;;;0.08;56.24;100586.06;5118702;28;8873;-64
2022/03/06 03:06:36;;;;;;;;;7.60;7.60;;;;;0.07;56.53;100587.81;5119102;28;9494;-63
2022/03/06 03:09:05;;;;;;;;;12.20;10.00;;;;;0.08;56.43;100589.53;5118788;28;8873;-64
2022/03/06 03:11:33;;;;;;;;;8.20;7.00;;;;;0.09;56.22;100590.38;5118688;28;8847;-63
2022/03/06 03:14:00;;;;;;;;;7.60;6.00;;;;;0.10;56.55;100582.47;5118567;28;8863;-63
2022/03/06 03:16:28;;;;;;;;;7.80;6.80;;;;;0.10;56.61;100587.72;5136308;27;8834;-66
2022/03/06 03:18:56;;;;;;;;;7.00;7.00;;;;;0.11;56.01;100586.84;5139377;27;9499;-64
2022/03/06 03:21:24;;;;;;;;;11.00;9.40;;;;;0.12;56.70;100593.78;5139237;27;9654;-63
2022/03/06 03:26:39;;;;;;;;;8.20;7.00;;;;;0.18;56.13;100593.59;5138377;27;8837;-63
2022/03/06 03:29:07;;;;;;;;;10.20;7.40;;;;;0.20;55.98;100594.44;5138932;27;8853;-63
2022/03/06 03:31:35;;;;;;;;;9.40;9.00;;;;;0.21;56.64;100585.69;5139237;27;8839;-64
2022/03/06 03:34:02;;;;;;;;;5.20;5.20;;;;;0.21;56.32;100583.06;5139027;27;8872;-64
2022/03/06 03:36:30;;;;;;;;;6.00;4.40;;;;;0.23;56.09;100594.34;5138592;27;8824;-64
2022/03/06 03:38:58;;;;;;;;;9.80;9.80;;;;;0.23;56.46;100594.34;5135878;27;8837;-64
2022/03/06 03:41:26;;;;;;;;;6.80;6.00;;;;;0.21;56.77;100600.50;5139412;27;8821;-64
2022/03/06 03:43:53;;;;;;;;;11.20;11.20;;;;;0.19;56.79;100600.56;5138892;27;8838;-64
2022/03/06 03:46:21;;;;;;;;;11.20;10.00;;;;;0.18;56.83;100604.06;5119289;27;8954;-64
2022/03/06 03:48:49;;;;;;;;;3.00;1.00;;;;;0.20;56.47;100604.03;5118385;28;8847;-63
2022/03/06 03:51:17;;;;;;;;;12.00;11.20;;;;;0.21;56.88;100606.63;5119204;27;8848;-64
2022/03/06 03:53:44;;;;;;;;;9.20;9.00;;;;;0.21;56.46;100597.88;5116809;28;8893;-63
2022/03/06 03:56:12;;;;;;;;;5.60;4.00;;;;;0.22;56.70;100602.22;5117867;28;8834;-64
2022/03/06 03:58:41;;;;;;;;;5.20;4.80;;;;;0.24;56.72;100601.28;5117761;28;9520;-64
2022/03/06 04:01:09;;;;;;;;;10.80;10.40;;;;;0.27;56.37;100606.47;5118016;28;9516;-65
2022/03/06 04:03:37;;;;;;;;;6.00;3.80;;;;;0.32;57.00;100606.31;5117969;28;8834;-64
2022/03/06 04:06:04;;;;;;;;;11.20;9.60;;;;;0.36;56.43;100603.56;5117629;28;8932;-63
2022/03/06 04:08:32;;;;;;;;;6.00;5.60;;;;;0.40;56.55;100602.56;5118156;28;8827;-63
2022/03/06 04:11:00;;;;;;;;;11.60;10.60;;;;;0.41;56.23;100609.56;5117919;28;8843;-64
2022/03/06 04:13:28;;;;;;;;;11.80;10.40;;;;;0.45;56.43;100612.91;5117284;28;8828;-65
2022/03/06 04:15:55;;;;;;;;;6.80;4.80;;;;;0.49;56.12;100615.44;5116826;28;8858;-64
2022/03/06 04:18:25;;;;;;;;;10.40;9.20;;;;;0.52;56.47;100617.94;5118141;28;8816;-65
2022/03/06 04:20:52;;;;;;;;;9.40;8.80;;;;;0.54;56.60;100621.38;5117565;28;8858;-65
2022/03/06 04:23:20;;;;;;;;;9.20;7.40;;;;;0.57;56.58;100610.84;5134884;27;8877;-63
2022/03/06 04:25:48;;;;;;;;;12.00;10.40;;;;;0.62;56.46;100614.16;5137493;27;8830;-64
2022/03/06 04:28:16;;;;;;;;;6.60;5.60;;;;;0.66;56.34;100617.53;5138100;27;8821;-64
2022/03/06 04:30:43;;;;;;;;;11.20;10.00;;;;;0.69;56.39;100613.09;5137735;27;8859;-63
2022/03/06 04:33:11;;;;;;;;;9.00;7.40;;;;;0.74;56.21;100613.81;5137744;27;8944;-64
2022/03/06 04:35:39;;;;;;;;;9.60;9.40;;;;;0.75;56.54;100618.16;5137421;27;8837;-68
2022/03/06 04:38:08;;;;;;;;;7.80;6.20;;;;;0.78;56.74;100623.28;5137422;27;8855;-63
2022/03/06 04:40:36;;;;;;;;;8.60;8.60;;;;;0.81;56.43;100620.59;5137792;27;8837;-64
2022/03/06 04:43:03;;;;;;;;;13.00;12.20;;;;;0.82;57.01;100618.81;5137810;27;8842;-64
2022/03/06 04:45:31;;;;;;;;;9.60;9.60;;;;;0.80;56.69;100629.38;5137247;27;8834;-63
2022/03/06 04:47:59;;;;;;;;;11.40;10.00;;;;;0.79;56.49;100625.03;5138014;27;8843;-64
2022/03/06 04:50:27;;;;;;;;;8.80;8.80;;;;;0.81;57.08;100635.44;5137440;27;8980;-63
2022/03/06 04:52:55;;;;;;;;;9.00;9.00;;;;;0.79;57.11;100632.91;5123126;27;8832;-63
2022/03/06 04:55:22;;;;;;;;;6.40;6.20;;;;;0.78;57.57;100636.38;5116782;28;8827;-64
2022/03/06 04:57:50;;;;;;;;;6.80;6.60;;;;;0.71;56.86;100634.00;5116565;28;8870;-64
2022/03/06 05:00:18;;;;;;;;;7.40;7.20;;;;;0.67;57.92;100638.47;5117131;28;8835;-64
2022/03/06 05:02:45;;;;;;;;;11.60;10.00;;;;;0.68;57.49;100645.44;5117089;28;8862;-63
2022/03/06 05:05:13;;;;;;;;;11.60;11.60;;;;;0.73;57.47;100640.06;5116911;28;8878;-64
2022/03/06 05:07:41;;;;;;;;;12.20;10.60;;;;;0.68;57.51;100637.56;5115371;28;8836;-64
2022/03/06 05:10:10;;;;;;;;;10.00;7.40;;;;;0.67;57.92;100641.09;5115187;28;8836;-63
2022/03/06 05:12:38;;;;;;;;;12.60;12.60;;;;;0.68;57.55;100640.19;5115388;28;9537;-64
2022/03/06 05:15:05;;;;;;;;;12.40;12.20;;;;;0.65;57.78;100636.78;5114784;28;9481;-64
2022/03/06 05:17:36;;;;;;;;;9.00;8.20;;;;;0.62;58.52;100635.13;5114959;28;8843;-64
2022/03/06 05:20:04;;;;;;;;;6.00;6.00;;;;;0.59;58.26;100634.34;5114436;28;8828;-64
2022/03/06 05:22:32;;;;;;;;;9.00;7.40;;;;;0.55;57.88;100638.81;5128013;27;8980;-63
2022/03/06 05:25:00;;;;;;;;;6.00;4.40;;;;;0.52;57.85;100649.38;5135683;27;8833;-63
2022/03/06 05:27:28;;;;;;;;;8.80;7.80;;;;;0.51;57.84;100645.06;5136187;27;8853;-68
2022/03/06 05:29:56;;;;;;;;;11.60;11.20;;;;;0.50;58.09;100643.34;5136141;27;8841;-64
2022/03/06 05:32:23;;;;;;;;;6.40;6.40;;;;;0.46;57.79;100641.69;5135907;27;8847;-63
2022/03/06 05:34:51;;;;;;;;;8.20;7.80;;;;;0.47;57.97;100647.81;5135559;27;8818;-64
2022/03/06 05:37:19;;;;;;;;;7.00;7.00;;;;;0.48;58.32;100645.13;5136299;27;8872;-66
2022/03/06 05:39:47;;;;;;;;;4.40;1.80;;;;;0.47;58.06;100638.16;5136143;27;9751;-64
2022/03/06 05:42:15;;;;;;;;;11.20;11.20;;;;;0.46;57.87;100646.09;5136567;27;8822;-64
2022/03/06 05:44:42;;;;;;;;;12.40;12.20;;;;;0.39;57.90;100648.00;5136533;27;8822;-64
2022/03/06 05:47:10;;;;;;;;;10.40;10.00;;;;;0.31;58.48;100652.59;5136332;27;8833;-63
2022/03/06 05:49:38;;;;;;;;;3.60;3.20;;;;;0.21;58.39;100648.50;5127776;27;8839;-63
2022/03/06 05:52:06;;;;;;;;;9.20;9.20;;;;;0.11;58.59;100654.91;5115048;28;8877;-64
2022/03/06 05:54:33;;;;;;;;;12.20;11.80;;;;;0.02;58.95;100652.50;5115836;28;8912;-64
2022/03/06 05:57:01;;;;;;;;;7.00;6.60;;;;;-0.07;59.14;100663.19;5115484;28;8832;-65
2022/03/06 05:59:29;;;;;;;;;6.80;6.60;;;;;-0.14;59.39;100673.00;5115196;28;8944;-63
2022/03/06 06:01:57;;;;;;;;;3.00;1.40;;;;;-0.21;59.51;100674.06;5115805;28;8955;-63
2022/03/06 06:04:25;;;;;;;;;7.80;7.80;;;;;-0.29;59.56;100670.75;5115291;28;8916;-63
2022/03/06 06:06:52;;;;;;;;;9.80;8.60;;;;;-0.35;59.47;100681.38;5114865;28;8940;-63
2022/03/06 06:09:21;;;;;;;;;9.40;8.60;;;;;-0.41;59.73;100687.59;5115406;28;8861;-64
2022/03/06 06:11:48;;;;;;;;;11.40;10.40;;;;;-0.44;59.78;100685.09;5115361;28;8840;-64
2022/03/06 06:14:16;;;;;;;;;10.20;9.40;;;;;-0.46;59.86;100688.63;5114615;28;8855;-63
2022/03/06 06:16:46;;;;;;;;;12.60;12.60;;;;;-0.49;59.74;100693.91;5113989;28;8824;-64
2022/03/06 06:19:16;;;;;;;;;12.00;10.00;;;;;-0.54;60.03;100688.78;5117630;27;8844;-63
2022/03/06 06:21:43;;;;;;;;;9.40;8.60;;;;;-0.55;59.61;100702.75;5094937;28;8869;-63
2022/03/06 06:24:11;;;;;;;;;10.40;9.60;;;;;-0.56;59.75;100697.56;5094610;28;8842;-66
2022/03/06 06:26:39;;;;;;;;;8.20;8.20;;;;;-0.58;60.30;100699.34;5094594;28;8833;-63
2022/03/06 06:29:07;;;;;;;;;9.80;9.40;;;;;-0.58;59.69;100709.81;5094806;28;8854;-63
2022/03/06 06:31:35;;;;;;;;;7.40;6.00;;;;;-0.60;60.03;100707.25;5094981;28;8830;-63
2022/03/06 06:34:02;;;;;;;;;6.80;6.80;;;;;-0.60;59.65;100711.59;5094591;28;8842;-64
2022/03/06 06:36:30;;;;;;;;;8.20;7.40;;;;;-0.59;59.98;100721.16;5094545;28;8838;-63
2022/03/06 06:38:58;;;;;;;;;11.60;9.60;;;;;-0.60;60.10;100712.47;5094581;28;8848;-63
2022/03/06 06:41:26;;;;;;;;;5.60;3.40;;;;;-0.59;59.68;100718.56;5094446;28;8829;-63
2022/03/06 06:43:53;;;;;;;;;9.40;9.00;;;;;-0.58;60.14;100715.91;5093514;28;9012;-63
2022/03/06 06:46:21;;;;;;;;;12.80;10.40;;;;;-0.55;59.48;100720.22;5093429;28;8911;-63
2022/03/06 06:48:49;;;;;;;;;9.00;7.00;;;;;-0.52;59.42;100720.13;5099748;27;9456;-63
2022/03/06 06:51:17;;;;;;;;;4.20;4.20;;;;;-0.51;59.47;100719.25;5134315;27;8970;-64
2022/03/06 06:53:44;;;;;;;;;10.80;9.40;;;;;-0.48;59.73;100724.41;5134333;27;8906;-64
2022/03/06 06:56:12;;;;;;;;;9.00;7.40;;;;;-0.44;59.48;100724.31;5134389;27;8859;-64
2022/03/06 06:58:40;;;;;;;;;8.80;7.60;;;;;-0.42;59.19;100729.50;5134193;27;8845;-64
2022/03/06 07:01:08;;;;;;;;;11.60;10.80;;;;;-0.37;59.34;100738.09;5133932;27;8845;-63
2022/03/06 07:03:36;;;;;;;;;7.00;6.00;;;;;-0.33;59.66;100731.91;5134518;27;8841;-63
2022/03/06 07:06:04;;;;;;;;;6.80;6.80;;;;;-0.26;59.24;100738.69;5134994;27;9562;-63
2022/03/06 07:08:33;;;;;;;;;10.40;9.40;;;;;-0.19;59.33;100735.03;5134462;27;8988;-64
2022/03/06 07:11:01;;;;;;;;;9.60;9.60;;;;;-0.14;58.66;100735.81;5134672;27;9752;-63
2022/03/06 07:13:28;;;;;;;;;5.60;3.80;;;;;-0.10;58.78;100740.09;5133243;27;8918;-64
2022/03/06 07:15:56;;;;;;;;;3.80;3.60;;;;;-0.06;59.31;100738.19;5134228;27;8837;-64
2022/03/06 07:18:24;;;;;;;;;9.20;7.00;;;;;0.01;58.88;100739.75;5133642;27;8855;-64
2022/03/06 07:20:52;;;;;;;;;12.80;12.00;;;;;0.10;58.74;100736.91;5132981;27;8830;-64
2022/03/06 07:23:20;;;;;;;;;9.60;9.20;;;;;0.19;58.50;100738.47;5133981;27;8836;-64
2022/03/06 07:25:48;;;;;;;;;8.60;7.80;;;;;0.28;58.36;100743.47;5134113;27;8849;-63
2022/03/06 07:28:17;;;;;;;;;13.00;11.20;;;;;0.38;58.37;100743.19;5136959;27;9561;-64
2022/03/06 07:30:45;;;;;;;;;8.60;7.80;;;;;0.49;58.03;100743.78;5138180;27;8821;-64
2022/03/06 07:33:12;;;;;;;;;9.20;7.00;;;;;0.66;57.70;100745.94;5138919;27;8843;-64
2022/03/06 07:35:40;;;;;;;;;16.00;12.00;;;;;0.84;57.58;100741.06;5138182;27;9647;-64
2022/03/06 07:38:08;;;;;;;;;10.80;7.80;;;;;1.08;57.12;100750.84;5138668;27;8822;-63
2022/03/06 07:40:36;;;;;;;;;12.40;12.00;;;;;1.46;56.99;100742.72;5138749;27;8964;-64
2022/03/06 07:43:04;;;;;;;;;6.40;6.40;;;;;1.95;56.38;100748.19;5138253;27;8825;-63
2022/03/06 07:45:31;;;;;;;;;10.00;9.00;;;;;2.46;56.00;100746.47;5138211;27;8821;-63
2022/03/06 07:47:59;;;;;;;;;12.60;12.20;;;;;2.95;54.59;100742.97;5137782;27;8855;-64
2022/03/06 07:50:27;;;;;;;;;11.40;10.00;;;;;3.38;54.15;100738.69;5119978;27;9745;-64
2022/03/06 07:52:56;;;;;;;;;3.20;3.20;;;;;3.72;53.86;100742.59;5117709;28;8877;-64
2022/03/06 07:55:23;;;;;;;;;16.40;15.00;;;;;4.08;53.39;100738.50;5117675;28;8850;-64
2022/03/06 07:57:51;;;;;;;;;12.40;12.40;;;;;4.36;53.86;100740.88;5117006;28;8844;-64
2022/03/06 08:00:19;;;;;;;;;9.60;9.40;;;;;4.57;53.05;100746.09;5117427;28;8820;-65
2022/03/06 08:02:47;;;;;;;;;14.20;12.40;;;;;4.78;53.31;100742.53;5117570;28;8962;-65
2022/03/06 08:05:15;;;;;;;;;11.20;9.40;;;;;4.98;53.09;100747.81;5117251;28;9519;-64
2022/03/06 08:07:42;;;;;;;;;11.40;8.20;;;;;5.18;53.39;100739.00;5117209;28;8836;-64
2022/03/06 08:10:10;;;;;;;;;14.00;11.40;;;;;5.35;52.33;100744.38;5117654;28;9527;-64
2022/03/06 08:12:40;;;;;;;;;8.80;8.80;;;;;5.52;52.39;100745.31;5116304;28;8861;-64
2022/03/06 08:15:09;;;;;;;;;16.00;14.20;;;;;5.76;52.32;100744.16;5115491;28;8839;-64
2022/03/06 08:17:36;;;;;;;;;12.00;9.40;;;;;5.92;52.36;100734.59;5115605;28;8958;-63
2022/03/06 08:20:04;;;;;;;;;13.40;12.60;;;;;6.03;52.14;100744.66;5129147;27;8956;-66
2022/03/06 08:22:32;;;;;;;;;14.60;10.80;;;;;6.13;52.01;100748.56;5136758;27;8838;-64
2022/03/06 08:24:59;;;;;;;;;12.60;12.60;;;;;6.12;52.00;100746.84;5136426;27;8842;-65
2022/03/06 08:27:27;;;;;;;;;13.00;11.40;;;;;6.03;52.19;100747.31;5135550;27;8857;-63
2022/03/06 08:29:55;;;;;;;;;14.20;12.60;;;;;5.87;52.38;100759.53;5132667;27;8821;-64
2022/03/06 08:32:22;;;;;;;;;9.80;8.80;;;;;5.74;52.99;100761.88;5135783;27;8851;-64
2022/03/06 08:34:51;;;;;;;;;11.20;9.80;;;;;5.56;52.69;100761.88;5135630;27;8837;-64
2022/03/06 08:37:19;;;;;;;;;14.20;14.20;;;;;5.42;53.33;100753.72;5135866;27;8865;-64
2022/03/06 08:39:47;;;;;;;;;12.00;12.00;;;;;5.33;53.44;100751.50;5135728;27;8976;-64
2022/03/06 08:42:14;;;;;;;;;12.20;12.00;;;;;5.35;53.14;100750.53;5137083;27;8829;-64
2022/03/06 08:44:42;;;;;;;;;14.60;12.60;;;;;5.53;52.96;100762.03;5137000;27;8818;-65
2022/03/06 08:47:10;;;;;;;;;13.80;13.80;;;;;5.74;52.54;100753.94;5134116;27;8906;-66
2022/03/06 08:49:38;;;;;;;;;17.00;16.60;;;;;5.94;52.32;100755.69;5124268;27;8893;-65
2022/03/06 08:52:06;;;;;;;;;16.80;13.40;;;;;6.08;52.18;100754.06;5116387;28;9560;-65
2022/03/06 08:54:33;;;;;;;;;12.20;11.40;;;;;6.18;52.49;100758.00;5116452;28;8819;-65
2022/03/06 08:57:01;;;;;;;;;14.40;11.80;;;;;6.43;51.64;100762.91;5116472;28;8863;-64
2022/03/06 08:59:29;;;;;;;;;13.40;12.60;;;;;6.67;51.81;100751.97;5115047;28;8860;-65
2022/03/06 09:01:56;;;;;;;;;16.80;16.00;;;;;6.89;51.01;100757.03;5116198;28;8856;-65
2022/03/06 09:04:24;;;;;;;;;14.20;13.40;;;;;7.00;51.05;100758.19;5113725;28;9014;-65
2022/03/06 09:06:52;;;;;;;;;17.20;13.40;;;;;7.04;51.39;100764.19;5115970;28;8891;-64
2022/03/06 09:09:20;;;;;;;;;15.20;13.80;;;;;7.02;51.32;100763.38;5116498;28;8878;-64
2022/03/06 09:11:48;;;;;;;;;9.40;7.40;;;;;7.06;51.51;100765.78;5116384;28;8858;-65
2022/03/06 09:14:15;;;;;;;;;10.20;9.60;;;;;7.02;51.57;100769.56;5116217;28;8847;-64
2022/03/06 09:16:43;;;;;;;;;15.60;15.00;;;;;6.96;51.54;100775.16;5115435;28;8820;-64
2022/03/06 09:19:11;;;;;;;;;16.00;15.80;;;;;6.91;51.83;100769.25;5120923;27;8806;-64
2022/03/06 09:21:39;;;;;;;;;10.80;10.80;;;;;6.87;51.64;100770.34;5136817;27;8850;-64
2022/03/06 09:24:08;;;;;;;;;17.20;13.80;;;;;6.86;51.74;100770.41;5136507;27;8840;-64
2022/03/06 09:26:36;;;;;;;;;14.80;13.40;;;;;6.89;51.39;100770.28;5136788;27;8849;-64
2022/03/06 09:29:04;;;;;;;;;18.20;15.40;;;;;6.90;51.44;100764.03;5136270;27;8843;-64
2022/03/06 09:31:31;;;;;;;;;21.00;18.80;;;;;6.92;51.23;100767.47;5136566;27;8948;-64
2022/03/06 09:33:59;;;;;;;;;15.40;12.80;;;;;6.92;51.33;100762.16;5135961;27;8829;-64
2022/03/06 09:36:43;;;;;;;;;17.60;15.80;;;;;6.94;51.30;100757.63;5133198;27;8982;-64
2022/03/06 09:39:13;;;;;;;;;21.20;19.00;;;;;6.98;51.26;100757.41;5135705;27;8821;-64
2022/03/06 09:41:40;;;;;;;;;9.80;8.20;;;;;7.03;51.42;100762.44;5136689;27;8948;-64
2022/03/06 09:44:08;;;;;;;;;10.40;10.00;;;;;7.07;51.04;100771.97;5136012;27;8822;-64
2022/03/06 09:46:36;;;;;;;;;12.60;12.60;;;;;7.13;50.92;100769.84;5135768;27;8860;-64
2022/03/06 09:49:04;;;;;;;;;16.80;12.40;;;;;7.21;51.02;100765.00;5128004;27;8820;-64
2022/03/06 09:51:31;;;;;;;;;18.60;15.00;;;;;7.32;50.85;100769.72;5113909;28;8855;-64
2022/03/06 09:53:59;;;;;;;;;13.60;12.20;;;;;7.44;50.61;100769.09;5114471;28;8828;-64
2022/03/06 09:56:27;;;;;;;;;9.60;8.20;;;;;7.53;50.24;100771.22;5114544;28;8854;-64
2022/03/06 09:58:55;;;;;;;;;14.60;13.00;;;;;7.60;50.27;100765.53;5112860;28;8993;-64
2022/03/06 10:01:23;;;;;;;;;16.20;15.40;;;;;7.70;50.53;100770.22;5113926;28;8834;-64
2022/03/06 10:03:51;;;;;;;;;9.00;6.40;;;;;7.86;50.30;100771.13;5114385;28;8831;-64
2022/03/06 10:06:18;;;;;;;;;10.80;10.80;;;;;8.06;50.04;100757.59;5114750;28;8840;-64
2022/03/06 10:08:46;;;;;;;;;7.00;5.60;;;;;8.30;49.90;100755.38;5114788;28;8858;-64
2022/03/06 10:11:14;;;;;;;;;13.80;13.80;;;;;8.54;49.24;100753.94;5115324;28;8851;-64
2022/03/06 10:13:42;;;;;;;;;9.80;9.20;;;;;8.81;48.88;100758.50;5115044;28;8865;-65
2022/03/06 10:16:10;;;;;;;;;7.80;7.00;;;;;9.25;48.35;100754.00;5114511;28;8966;-64
2022/03/06 10:18:38;;;;;;;;;9.00;9.00;;;;;10.03;46.53;100764.16;5116841;27;8971;-65
2022/03/06 10:21:06;;;;;;;;;9.80;9.80;;;;;11.07;45.58;100750.00;5134852;27;8841;-64
2022/03/06 10:23:33;;;;;;;;;9.80;9.40;;;;;12.20;43.29;100738.19;5135633;27;8958;-64
2022/03/06 10:26:01;;;;;;;;;6.00;4.50;;;;;13.12;42.34;100737.38;5135301;27;8839;-65
2022/03/06 10:28:29;;;;;;;;;10.75;9.50;;;;;13.97;41.25;100730.47;5135166;27;8837;-65
2022/03/06 10:30:57;;;;;;;;;6.25;6.25;;;;;14.64;40.21;100723.13;5135087;27;8830;-65
2022/03/06 10:33:26;;;;;;;;;13.00;12.00;;;;;14.86;39.92;100725.72;5135297;27;8825;-65
2022/03/06 10:35:55;;;;;;;;;16.00;13.50;;;;;14.39;40.83;100734.16;5134679;27;8849;-66
2022/03/06 10:38:23;;;;;;;;;7.00;7.00;;;;;13.47;42.12;100741.69;5134726;27;8822;-64
2022/03/06 10:40:51;;;;;;;;;14.50;14.00;;;;;13.61;41.87;100740.59;5134478;27;8838;-65
2022/03/06 10:43:18;;;;;;;;;13.00;12.00;;;;;14.37;41.24;100737.00;5135329;27;8830;-65
2022/03/06 10:45:46;;;;;;;;;16.00;15.00;;;;;14.96;39.99;100734.66;5135378;27;8825;-67
2022/03/06 10:48:14;;;;;;;;;13.75;11.00;;;;;15.10;40.02;100740.53;5135246;27;8821;-64
2022/03/06 10:50:42;;;;;;;;;18.25;16.50;;;;;14.73;40.82;100743.78;5114623;28;8952;-64
2022/03/06 10:53:09;;;;;;;;;15.00;13.00;;;;;14.71;40.25;100729.69;5114634;28;9688;-65
2022/03/06 10:55:37;;;;;;;;;15.00;13.50;;;;;14.41;41.12;100729.56;5113852;28;8942;-64
2022/03/06 10:58:05;;;;;;;;;17.50;15.50;;;;;14.60;40.80;100733.25;5113091;28;8844;-65
2022/03/06 11:00:34;;;;;;;;;15.00;15.00;;;;;14.96;39.94;100723.94;5114281;28;8827;-64
2022/03/06 11:03:02;;;;;;;;;17.00;16.50;;;;;15.30;39.45;100728.09;5117532;28;8839;-66
2022/03/06 11:05:30;;;;;;;;;15.00;12.25;;;;;15.95;37.99;100728.56;5117745;28;8840;-64
2022/03/06 11:07:57;;;;;;;;;10.00;10.00;;;;;16.41;37.78;100718.94;5117664;28;8843;-65
2022/03/06 11:10:25;;;;;;;;;15.00;13.00;;;;;16.82;37.22;100719.53;5117302;28;8855;-65
2022/03/06 11:12:53;;;;;;;;;12.75;12.75;;;;;17.30;36.00;100714.91;5117517;28;8836;-66
2022/03/06 11:15:21;;;;;;;;;16.00;13.00;;;;;17.71;35.73;100721.75;5117485;28;8832;-65
2022/03/06 11:17:48;;;;;;;;;21.00;18.00;;;;;18.09;35.13;100718.84;5117496;28;8835;-65
2022/03/06 11:20:18;;;;;;;;;12.25;10.00;;;;;18.17;34.88;100711.72;5133499;27;8821;-66
2022/03/06 11:22:45;;;;;;;;;7.00;6.50;;;;;18.08;35.13;100718.00;5138746;27;8930;-65
2022/03/06 11:25:13;;;;;;;;;16.50;16.00;;;;;18.20;34.66;100708.69;5138469;27;8856;-67
2022/03/06 11:27:41;;;;;;;;;17.50;17.00;;;;;18.28;35.00;100698.00;5138513;27;8845;-64
2022/03/06 11:30:10;;;;;;;;;16.00;15.00;;;;;18.44;34.35;100703.59;5136976;27;8860;-65
2022/03/06 11:32:39;;;;;;;;;12.75;12.00;;;;;18.67;34.13;100714.78;5137776;27;8826;-65
2022/03/06 11:35:06;;;;;;;;;22.00;17.50;;;;;19.06;33.41;100705.34;5137894;27;8983;-65
2022/03/06 11:37:34;;;;;;;;;12.75;9.50;;;;;19.26;32.75;100702.31;5138300;27;8845;-66
2022/03/06 11:40:02;;;;;;;;;11.50;11.00;;;;;19.42;32.32;100706.97;5137371;27;8826;-65